createdAt,value
2023-01-30T00:01:26.562Z,26.70
2023-01-30T00:03:53.922Z,20.07
2023-01-30T00:06:21.897Z,25.40
2023-01-30T00:08:48.939Z,19.23
2023-01-30T00:11:19.591Z,22.67
2023-01-30T00:13:49.109Z,20.67
2023-01-30T00:16:17.451Z,19.67
2023-01-30T00:18:44.806Z,22.87
2023-01-30T00:21:14.861Z,18.73
2023-01-30T00:40:19.207Z,20.93
2023-01-30T00:43:04.963Z,21.83
2023-01-30T00:45:50.527Z,18.83
2023-01-30T00:48:17.735Z,21.00
2023-01-30T00:50:44.599Z,19.10
2023-01-30T00:53:13.147Z,17.80
2023-01-30T00:55:40.516Z,18.25
2023-01-30T00:58:07.819Z,15.77
2023-01-30T01:00:35.115Z,18.53
2023-01-30T01:03:02.571Z,15.93
2023-01-30T01:05:29.551Z,15.57
2023-01-30T01:07:56.949Z,19.10
2023-01-30T01:10:24.313Z,18.93
2023-01-30T01:12:55.197Z,19.13
2023-01-30T01:15:24.505Z,18.23
2023-01-30T01:17:51.987Z,17.13
2023-01-30T01:20:19.919Z,14.77
2023-01-30T01:22:50.473Z,10.50
2023-01-30T01:25:19.608Z,18.63
2023-01-30T01:27:47.931Z,18.67
2023-01-30T01:30:15.005Z,19.20
2023-01-30T01:32:42.481Z,15.20
2023-01-30T01:35:10.034Z,13.40
2023-01-30T01:37:37.252Z,16.13
2023-01-30T01:40:24.308Z,13.93
2023-01-30T01:42:52.143Z,16.20
2023-01-30T01:45:29.758Z,16.93
2023-01-30T01:48:10.153Z,15.73
2023-01-30T01:50:42.929Z,15.27
2023-01-30T01:53:13.061Z,20.30
2023-01-30T01:55:42.110Z,15.77
2023-01-30T01:58:15.651Z,17.90
2023-01-30T02:12:31.492Z,17.80
2023-01-30T02:15:00.514Z,16.30
2023-01-30T02:17:27.580Z,15.90
2023-01-30T02:20:08.101Z,17.13
2023-01-30T02:22:56.384Z,17.47
2023-01-30T02:25:35.393Z,16.80
2023-01-30T02:28:17.268Z,16.48
2023-01-30T02:30:53.479Z,16.60
2023-01-30T02:33:26.525Z,15.40
2023-01-30T02:36:12.187Z,16.23
2023-01-30T02:38:50.027Z,13.07
2023-01-30T02:41:55.627Z,14.60
2023-01-30T02:44:22.465Z,17.00
2023-01-30T02:47:06.600Z,14.23
2023-01-30T03:02:29.367Z,17.20
2023-01-30T03:05:53.475Z,15.27
2023-01-30T03:08:34.436Z,17.20
2023-01-30T03:11:11.554Z,14.73
2023-01-30T03:14:00.644Z,16.57
2023-01-30T03:16:38.978Z,14.43
2023-01-30T03:19:12.178Z,16.15
2023-01-30T03:21:44.750Z,18.17
2023-01-30T03:24:15.200Z,17.80
2023-01-30T03:26:52.125Z,15.33
2023-01-30T03:29:19.029Z,16.63
2023-01-30T03:31:46.448Z,15.53
2023-01-30T03:34:13.428Z,16.17
2023-01-30T03:36:40.867Z,17.53
2023-01-30T03:39:08.491Z,18.87
2023-01-30T03:41:35.739Z,16.97
2023-01-30T03:44:02.784Z,20.40
2023-01-30T03:46:30.044Z,18.93
2023-01-30T03:48:57.016Z,15.60
2023-01-30T03:51:24.215Z,17.93
2023-01-30T03:53:51.228Z,19.23
2023-01-30T03:56:18.446Z,19.80
2023-01-30T03:58:45.402Z,20.53
2023-01-30T04:01:12.832Z,17.80
2023-01-30T04:03:39.810Z,16.27
2023-01-30T04:06:07.288Z,16.80
2023-01-30T04:08:34.258Z,21.37
2023-01-30T04:11:01.453Z,19.33
2023-01-30T04:13:28.374Z,19.63
2023-01-30T04:16:16.110Z,18.77
2023-01-30T04:18:43.061Z,19.00
2023-01-30T04:21:10.442Z,20.30
2023-01-30T04:23:37.400Z,19.47
2023-01-30T04:26:05.311Z,20.40
2023-01-30T04:28:32.616Z,22.50
2023-01-30T04:31:00.054Z,18.90
2023-01-30T04:33:27.203Z,20.93
2023-01-30T04:35:59.464Z,26.33
2023-01-30T04:38:27.972Z,22.30
2023-01-30T04:40:57.285Z,19.17
2023-01-30T04:45:52.991Z,23.52
2023-01-30T04:48:21.402Z,23.93
2023-01-30T04:53:17.837Z,22.00
2023-01-30T04:55:45.077Z,16.23
2023-01-30T04:58:12.303Z,21.90
2023-01-30T05:00:39.533Z,27.60
2023-01-30T05:03:07.293Z,21.07
2023-01-30T05:05:34.512Z,25.98
2023-01-30T05:08:01.780Z,29.63
2023-01-30T05:10:29.173Z,22.73
2023-01-30T05:12:56.080Z,20.17
2023-01-30T05:15:23.341Z,21.97
2023-01-30T05:17:50.276Z,26.70
2023-01-30T05:20:17.809Z,22.67
2023-01-30T05:22:44.933Z,23.37
2023-01-30T05:25:12.237Z,20.87
2023-01-30T05:27:39.180Z,27.70
2023-01-30T05:30:07.102Z,24.90
2023-01-30T05:32:34.188Z,22.33
2023-01-30T05:35:01.582Z,24.53
2023-01-30T05:37:28.478Z,21.40
2023-01-30T05:39:55.713Z,23.23
2023-01-30T05:42:22.598Z,19.13
2023-01-30T05:44:49.810Z,24.50
2023-01-30T05:47:16.690Z,20.23
2023-01-30T05:49:43.826Z,21.90
2023-01-30T05:52:10.729Z,23.07
2023-01-30T05:54:37.968Z,23.63
2023-01-30T05:57:05.179Z,19.40
2023-01-30T05:59:32.318Z,19.83
2023-01-30T06:01:59.204Z,19.40
2023-01-30T06:04:26.431Z,16.70
2023-01-30T06:06:53.371Z,18.20
2023-01-30T06:09:20.549Z,28.50
2023-01-30T06:11:47.454Z,22.60
2023-01-30T06:14:14.675Z,17.90
2023-01-30T06:16:41.608Z,18.83
2023-01-30T06:19:09.181Z,21.47
2023-01-30T06:21:36.065Z,22.47
2023-01-30T06:24:03.701Z,11.70
2023-01-30T06:26:30.716Z,18.23
2023-01-30T06:28:58.086Z,19.37
2023-01-30T06:31:25.141Z,18.43
2023-01-30T06:33:52.456Z,21.10
2023-01-30T06:36:19.404Z,22.23
2023-01-30T06:38:54.970Z,19.40
2023-01-30T06:41:22.463Z,20.70
2023-01-30T06:43:49.816Z,19.60
2023-01-30T06:46:16.789Z,25.13
2023-01-30T06:48:43.925Z,19.83
2023-01-30T06:51:10.847Z,20.47
2023-01-30T06:53:38.106Z,24.73
2023-01-30T06:56:05.185Z,19.03
2023-01-30T06:58:32.499Z,17.00
2023-01-30T07:00:59.956Z,31.90
2023-01-30T07:03:27.364Z,20.57
2023-01-30T07:05:54.379Z,20.10
2023-01-30T07:08:23.350Z,21.00
2023-01-30T07:10:51.419Z,22.43
2023-01-30T07:13:18.636Z,20.60
2023-01-30T07:15:46.956Z,26.17
2023-01-30T07:18:14.270Z,21.03
2023-01-30T07:20:42.317Z,21.33
2023-01-30T07:23:09.561Z,25.40
2023-01-30T07:25:36.609Z,21.43
2023-01-30T07:28:04.129Z,24.90
2023-01-30T07:30:33.704Z,18.50
2023-01-30T07:33:01.101Z,24.27
2023-01-30T07:35:30.634Z,26.83
2023-01-30T07:37:58.621Z,25.33
2023-01-30T07:40:26.590Z,23.57
2023-01-30T07:43:08.745Z,27.83
2023-01-30T07:45:41.120Z,28.87
2023-01-30T07:48:12.092Z,21.03
2023-01-30T07:50:39.114Z,22.93
2023-01-30T07:53:07.751Z,19.47
2023-01-30T07:55:35.345Z,22.98
2023-01-30T07:58:02.999Z,26.17
2023-01-30T08:00:30.129Z,27.73
2023-01-30T08:02:57.426Z,21.13
2023-01-30T08:05:24.373Z,22.07
2023-01-30T08:07:51.747Z,22.27
2023-01-30T08:10:19.197Z,25.77
2023-01-30T08:12:46.716Z,20.67
2023-01-30T08:15:13.621Z,25.57
2023-01-30T08:17:40.878Z,22.37
2023-01-30T08:20:08.597Z,22.43
2023-01-30T08:22:35.821Z,21.40
2023-01-30T08:25:02.904Z,21.03
2023-01-30T08:27:30.163Z,24.93
2023-01-30T08:29:57.418Z,18.43
2023-01-30T08:32:24.664Z,19.33
2023-01-30T08:34:51.521Z,23.23
2023-01-30T08:37:18.676Z,21.53
2023-01-30T08:39:45.554Z,21.23
2023-01-30T08:42:12.714Z,25.30
2023-01-30T08:44:39.604Z,23.00
2023-01-30T08:47:06.756Z,24.53
2023-01-30T08:49:33.745Z,23.37
2023-01-30T08:52:00.957Z,17.47
2023-01-30T08:54:27.903Z,18.50
2023-01-30T08:56:55.128Z,19.87
2023-01-30T08:59:22.138Z,18.73
2023-01-30T09:01:49.352Z,21.40
2023-01-30T09:04:16.269Z,20.57
2023-01-30T09:06:43.407Z,18.37
2023-01-30T09:09:10.314Z,19.23
2023-01-30T09:11:37.526Z,21.33
2023-01-30T09:14:04.461Z,18.93
2023-01-30T09:16:31.706Z,22.73
2023-01-30T09:18:58.627Z,18.83
2023-01-30T09:21:25.793Z,23.20
2023-01-30T09:23:52.730Z,21.03
2023-01-30T09:26:19.978Z,25.33
2023-01-30T09:28:46.923Z,23.83
2023-01-30T09:31:14.139Z,20.90
2023-01-30T09:33:41.232Z,20.17
2023-01-30T09:36:09.048Z,15.70
2023-01-30T09:38:36.104Z,17.73
2023-01-30T09:41:31.846Z,19.60
2023-01-30T09:44:33.020Z,14.50
2023-01-30T09:47:10.829Z,19.83
2023-01-30T09:49:46.379Z,20.93
2023-01-30T09:52:23.473Z,21.90
2023-01-30T09:54:54.333Z,21.47
2023-01-30T09:57:25.021Z,24.73
2023-01-30T10:00:05.744Z,21.93
2023-01-30T10:03:02.171Z,25.23
2023-01-30T10:05:55.625Z,13.63
2023-01-30T10:08:37.398Z,21.20
2023-01-30T10:11:29.350Z,19.33
2023-01-30T10:14:31.951Z,15.90
2023-01-30T10:17:20.332Z,19.90
2023-01-30T10:19:57.467Z,17.55
2023-01-30T10:22:42.977Z,18.83
2023-01-30T10:25:35.245Z,17.47
2023-01-30T10:28:16.143Z,17.90
2023-01-30T10:30:46.438Z,21.30
2023-01-30T10:33:25.165Z,20.63
2023-01-30T10:38:39.351Z,22.13
2023-01-30T10:41:16.205Z,20.87
2023-01-30T10:43:48.228Z,22.03
2023-01-30T10:46:24.637Z,17.23
2023-01-30T10:49:39.357Z,18.87
2023-01-30T10:52:54.793Z,21.23
2023-01-30T10:55:39.893Z,14.63
2023-01-30T10:58:09.907Z,18.50
2023-01-30T11:00:46.552Z,21.20
2023-01-30T11:03:22.329Z,17.40
2023-01-30T11:05:53.056Z,19.63
2023-01-30T11:08:24.047Z,19.40
2023-01-30T11:10:52.856Z,17.23
2023-01-30T11:13:31.671Z,22.40
2023-01-30T11:16:04.231Z,22.27
2023-01-30T11:21:43.645Z,15.77
2023-01-30T11:24:20.432Z,21.93
2023-01-30T11:26:48.687Z,25.23
2023-01-30T11:29:25.418Z,11.70
2023-01-30T11:31:52.976Z,16.53
2023-01-30T11:34:22.494Z,20.03
2023-01-30T11:36:50.516Z,17.43
2023-01-30T11:39:21.955Z,19.35
2023-01-30T11:41:58.581Z,20.07
2023-01-30T11:44:27.607Z,21.20
2023-01-30T11:46:54.912Z,19.85
2023-01-30T11:49:49.607Z,19.27
2023-01-30T11:52:12.437Z,31.13
2023-01-30T11:54:45.263Z,19.85
2023-01-30T11:57:15.908Z,18.60
2023-01-30T11:59:53.925Z,23.50
2023-01-30T12:02:24.712Z,20.87
2023-01-30T12:05:07.220Z,18.87
2023-01-30T12:07:36.927Z,20.77
2023-01-30T12:10:20.199Z,18.70
2023-01-30T12:12:54.094Z,20.77
2023-01-30T12:15:35.467Z,19.80
2023-01-30T12:18:14.264Z,26.20
2023-01-30T12:20:53.216Z,19.03
2023-01-30T12:24:05.259Z,21.38
2023-01-30T12:26:44.412Z,17.43
2023-01-30T12:29:17.519Z,20.08
2023-01-30T12:31:58.816Z,24.33
2023-01-30T12:34:28.260Z,24.63
2023-01-30T12:37:17.293Z,22.10
2023-01-30T12:40:16.197Z,21.50
2023-01-30T12:42:53.023Z,20.20
2023-01-30T12:45:26.302Z,22.30
2023-01-30T12:47:59.739Z,19.90
2023-01-30T12:50:55.700Z,20.97
2023-01-30T12:53:41.551Z,23.60
2023-01-30T12:56:17.521Z,21.80
2023-01-30T12:58:55.250Z,23.80
2023-01-30T13:01:34.073Z,25.10
2023-01-30T13:06:58.476Z,19.83
2023-01-30T13:09:44.183Z,24.27
2023-01-30T13:12:22.430Z,20.87
2023-01-30T13:15:14.204Z,15.82
2023-01-30T13:18:01.421Z,18.77
2023-01-30T13:20:41.044Z,25.07
2023-01-30T13:23:17.011Z,28.07
2023-01-30T13:26:05.088Z,23.70
2023-01-30T13:28:47.560Z,30.47
2023-01-30T13:31:22.087Z,19.53
2023-01-30T13:33:52.756Z,24.50
2023-01-30T13:36:25.170Z,20.33
2023-01-30T13:39:02.981Z,25.23
2023-01-30T13:41:35.904Z,26.25
2023-01-30T13:44:38.125Z,23.40
2023-01-30T13:47:39.872Z,28.20
2023-01-30T13:50:20.962Z,25.57
2023-01-30T13:53:34.466Z,27.77
2023-01-30T13:56:32.884Z,22.50
2023-01-30T13:59:37.568Z,25.33
2023-01-30T14:02:05.147Z,19.37
2023-01-30T14:04:44.772Z,26.90
2023-01-30T14:07:17.652Z,29.43
2023-01-30T14:10:10.667Z,24.13
2023-01-30T14:12:49.727Z,28.27
2023-01-30T14:15:17.476Z,31.70
2023-01-30T14:18:02.588Z,32.20
2023-01-30T14:20:43.166Z,28.93
2023-01-30T14:23:29.960Z,28.27
2023-01-30T14:25:57.246Z,31.83
2023-01-30T14:28:24.082Z,20.83
2023-01-30T14:30:52.961Z,29.97
2023-01-30T14:33:19.920Z,25.20
2023-01-30T14:36:10.375Z,23.40
2023-01-30T14:38:39.667Z,43.00
2023-01-30T14:41:09.314Z,33.63
2023-01-30T14:43:42.130Z,50.00
2023-01-30T14:46:29.412Z,31.37
2023-01-30T14:49:04.402Z,24.00
2023-01-30T14:51:40.666Z,26.23
2023-01-30T14:54:13.450Z,28.33
2023-01-30T14:56:54.927Z,26.43
2023-01-30T14:59:22.111Z,28.50
2023-01-30T15:02:08.134Z,31.60
2023-01-30T15:04:48.443Z,29.90
2023-01-30T15:07:23.928Z,27.87
2023-01-30T15:09:57.494Z,33.53
2023-01-30T15:12:30.797Z,38.47
2023-01-30T15:15:22.506Z,37.87
2023-01-30T15:18:07.196Z,33.80
2023-01-30T15:20:42.389Z,32.33
2023-01-30T15:23:09.535Z,34.47
2023-01-30T15:26:00.465Z,29.53
2023-01-30T15:28:58.355Z,30.00
2023-01-30T15:31:26.099Z,36.77
2023-01-30T15:33:56.804Z,21.85
2023-01-30T15:36:30.185Z,29.07
2023-01-30T15:39:06.357Z,22.57
2023-01-30T15:41:40.544Z,33.67
2023-01-30T15:44:35.821Z,28.40
2023-01-30T15:47:25.530Z,27.37
2023-01-30T15:50:03.454Z,32.07
2023-01-30T15:52:40.153Z,30.33
2023-01-30T15:55:15.670Z,29.67
2023-01-30T15:57:48.732Z,20.53
2023-01-30T16:00:29.086Z,37.03
2023-01-30T16:02:58.279Z,26.90
2023-01-30T16:05:26.848Z,29.27
2023-01-30T16:07:56.383Z,41.70
2023-01-30T16:10:29.744Z,31.83
2023-01-30T16:13:02.514Z,25.27
2023-01-30T16:15:46.643Z,28.17
2023-01-30T16:18:16.488Z,21.70
2023-01-30T16:21:00.731Z,49.43
2023-01-30T16:23:42.384Z,56.23
2023-01-30T16:26:18.037Z,46.03
2023-01-30T16:28:45.442Z,33.80
2023-01-30T16:31:12.854Z,26.37
2023-01-30T16:33:39.931Z,26.77
2023-01-30T16:36:27.348Z,27.33
2023-01-30T16:38:55.451Z,42.87
2023-01-30T16:41:39.523Z,41.30
2023-01-30T16:44:27.199Z,35.00
2023-01-30T16:47:00.337Z,34.58
2023-01-30T16:49:36.009Z,47.37
2023-01-30T16:52:30.523Z,45.33
2023-01-30T16:55:03.147Z,50.53
2023-01-30T16:57:45.748Z,34.83
2023-01-30T17:00:23.609Z,39.40
2023-01-30T17:02:55.870Z,54.22
2023-01-30T17:05:26.380Z,47.87
2023-01-30T17:07:56.004Z,65.73
2023-01-30T17:10:41.589Z,53.70
2023-01-30T17:13:34.885Z,39.10
2023-01-30T17:16:22.789Z,43.97
2023-01-30T17:18:54.721Z,56.95
2023-01-30T17:21:23.877Z,45.50
2023-01-30T17:23:55.026Z,46.27
2023-01-30T17:26:22.053Z,37.17
2023-01-30T17:28:49.403Z,36.60
2023-01-30T17:31:18.607Z,47.77
2023-01-30T17:33:46.128Z,41.08
2023-01-30T17:36:23.022Z,35.87
2023-01-30T17:38:51.964Z,36.65
2023-01-30T17:41:24.522Z,41.37
2023-01-30T17:43:51.842Z,37.80
2023-01-30T17:46:22.928Z,49.47
2023-01-30T17:48:51.891Z,40.67
2023-01-30T17:51:18.967Z,50.50
2023-01-30T17:53:46.257Z,37.40
2023-01-30T17:56:22.088Z,38.60
2023-01-30T17:58:50.968Z,76.50
2023-01-30T18:01:19.192Z,34.15
2023-01-30T18:03:46.573Z,40.30
2023-01-30T18:06:15.344Z,32.10
2023-01-30T18:08:42.677Z,38.77
2023-01-30T18:11:12.034Z,33.40
2023-01-30T18:13:40.006Z,38.33
2023-01-30T18:16:07.355Z,33.90
2023-01-30T18:18:34.675Z,29.33
2023-01-30T18:21:01.663Z,39.67
2023-01-30T18:23:28.831Z,54.73
2023-01-30T18:25:55.856Z,25.17
2023-01-30T18:28:23.041Z,34.63
2023-01-30T18:30:50.147Z,29.20
2023-01-30T18:33:17.481Z,34.47
2023-01-30T18:35:44.392Z,30.80
2023-01-30T18:38:11.700Z,44.40
2023-01-30T18:40:39.950Z,41.70
2023-01-30T18:43:07.109Z,35.53
2023-01-30T18:45:34.068Z,34.83
2023-01-30T18:48:01.305Z,60.53
2023-01-30T18:50:28.284Z,38.03
2023-01-30T18:52:55.500Z,34.30
2023-01-30T18:55:25.472Z,47.27
2023-01-30T18:57:52.775Z,44.77
2023-01-30T19:00:21.591Z,41.20
2023-01-30T19:02:53.941Z,30.63
2023-01-30T19:05:21.087Z,41.93
2023-01-30T19:07:48.321Z,36.93
2023-01-30T19:10:17.774Z,46.10
2023-01-30T19:13:04.333Z,37.37
2023-01-30T19:15:31.426Z,33.77
2023-01-30T19:17:58.774Z,39.73
2023-01-30T19:20:26.632Z,49.70
2023-01-30T19:22:55.052Z,34.40
2023-01-30T19:25:22.324Z,40.97
2023-01-30T19:27:49.574Z,48.80
2023-01-30T19:30:16.944Z,47.70
2023-01-30T19:32:44.461Z,37.73
2023-01-30T19:35:11.387Z,42.37
2023-01-30T19:37:39.407Z,33.63
2023-01-30T19:40:09.549Z,36.23
2023-01-30T19:42:40.217Z,36.73
2023-01-30T19:45:10.069Z,42.27
2023-01-30T19:47:37.499Z,35.47
2023-01-30T19:50:04.897Z,43.47
2023-01-30T19:52:32.022Z,43.37
2023-01-30T19:54:58.942Z,43.63
2023-01-30T19:57:26.246Z,40.73
2023-01-30T19:59:53.168Z,39.47
2023-01-30T20:02:20.387Z,46.40
2023-01-30T20:04:47.347Z,41.97
2023-01-30T20:07:14.544Z,36.07
2023-01-30T20:09:41.472Z,43.10
2023-01-30T20:12:08.750Z,48.67
2023-01-30T20:14:35.682Z,36.00
2023-01-30T20:17:02.976Z,45.73
2023-01-30T20:19:29.941Z,32.67
2023-01-30T20:21:57.199Z,49.27
2023-01-30T20:24:24.163Z,33.73
2023-01-30T20:26:51.526Z,40.40
2023-01-30T20:29:18.521Z,41.63
2023-01-30T20:31:45.920Z,43.03
2023-01-30T20:34:14.648Z,31.47
2023-01-30T20:39:08.886Z,33.33
2023-01-30T20:41:37.897Z,36.73
2023-01-30T20:44:07.472Z,45.92
2023-01-30T20:46:43.738Z,49.20
2023-01-30T20:49:17.173Z,35.40
2023-01-30T20:51:45.126Z,41.53
2023-01-30T20:54:14.180Z,43.23
2023-01-30T20:56:43.924Z,36.03
2023-01-30T20:59:13.199Z,39.57
2023-01-30T21:01:40.994Z,41.33
2023-01-30T21:04:10.682Z,38.13
2023-01-30T21:06:43.519Z,32.87
2023-01-30T21:09:21.630Z,38.53
2023-01-30T21:11:51.178Z,36.13
2023-01-30T21:14:18.487Z,32.27
2023-01-30T21:16:46.565Z,29.93
2023-01-30T21:19:16.599Z,37.37
2023-01-30T21:21:54.252Z,46.37
2023-01-30T21:24:26.733Z,40.70
2023-01-30T21:26:55.249Z,49.37
2023-01-30T21:29:24.684Z,35.80
2023-01-30T21:31:52.790Z,32.77
2023-01-30T21:34:19.902Z,40.53
2023-01-30T21:37:07.062Z,35.80
2023-01-30T21:39:52.687Z,39.73
2023-01-30T21:42:39.005Z,45.77
2023-01-30T21:45:06.963Z,36.17
2023-01-30T21:47:34.229Z,33.70
2023-01-30T21:50:01.270Z,29.93
2023-01-30T21:52:32.031Z,27.13
2023-01-30T21:54:59.075Z,28.90
2023-01-30T21:57:26.355Z,34.10
2023-01-30T21:59:53.323Z,27.00
2023-01-30T22:02:20.590Z,34.30
2023-01-30T22:04:47.507Z,30.50
2023-01-30T22:07:14.776Z,25.37
2023-01-30T22:09:41.673Z,32.77
2023-01-30T22:12:10.835Z,22.50
2023-01-30T22:14:37.750Z,26.63
2023-01-30T22:17:05.015Z,32.73
2023-01-30T22:19:35.803Z,18.87
2023-01-30T22:22:03.914Z,31.67
2023-01-30T22:24:30.847Z,27.73
2023-01-30T22:26:58.077Z,31.70
2023-01-30T22:29:25.004Z,27.47
2023-01-30T22:31:52.341Z,27.60
2023-01-30T22:34:19.479Z,28.47
2023-01-30T22:36:47.996Z,26.00
2023-01-30T22:39:15.000Z,35.08
2023-01-30T22:41:42.282Z,25.57
2023-01-30T22:44:10.145Z,24.30
2023-01-30T22:46:39.711Z,25.40
2023-01-30T22:49:08.403Z,29.90
2023-01-30T22:51:40.686Z,31.23
2023-01-30T22:54:12.144Z,35.40
2023-01-30T22:56:41.460Z,30.37
2023-01-30T22:59:09.572Z,29.52
2023-01-30T23:01:50.728Z,22.38
2023-01-30T23:04:20.518Z,32.53
2023-01-30T23:06:49.171Z,26.93
2023-01-30T23:09:22.211Z,33.20
2023-01-30T23:12:11.370Z,31.43
2023-01-30T23:14:39.234Z,31.47
2023-01-30T23:17:26.026Z,36.90
2023-01-30T23:19:54.120Z,32.30
2023-01-30T23:22:21.411Z,28.98
2023-01-30T23:24:48.853Z,39.80
2023-01-30T23:27:16.076Z,38.13
2023-01-30T23:29:43.139Z,37.27
2023-01-30T23:32:10.434Z,36.77
2023-01-30T23:34:37.750Z,32.90
2023-01-30T23:37:04.967Z,34.03
2023-01-30T23:39:31.951Z,31.90
2023-01-30T23:41:59.113Z,36.87
2023-01-30T23:44:26.008Z,34.23
2023-01-30T23:46:53.210Z,35.77
2023-01-30T23:49:20.212Z,34.27
2023-01-30T23:51:47.454Z,39.20
2023-01-30T23:54:14.442Z,47.87
2023-01-30T23:56:43.533Z,23.57
2023-01-30T23:59:11.280Z,29.02
